Cmb Ariane — VRIT7 — position and weather

sailwx.info

Track history (hours):
 
Tides and Currents Weather Stations Pressure Air Temp Water Temp Dewpoint Dewpoint Depression Visibility Wind Speed Wind Dir Waves Ship Positions

Cmb Ariane

Last reported at 2017-Aug-14 08:22 UTC. Time now 2017-Aug-21 12:07 UTC.
Position N 36°11' E 014°40'.

Length 180 m; draft 9.7 m.

Type: Cargo ship. MMSI: 477229600.

Date/timePositionNaut miles runAvg speedWind from/ knotsBaromVisibWave heightAir tempDewpointWater temp
2017-Aug-14 08:22N 36°11' E 014°40'513.1
2017-Aug-14 08:00N 36°12' E 014°35'713.1
2017-Aug-14 07:30N 36°14' E 014°27'612.8
2017-Aug-14 07:00N 36°17' E 014°20'713.0
2017-Aug-14 06:30N 36°19' E 014°12'612.9
2017-Aug-14 06:00N 36°22' E 014°05'712.9
2017-Aug-14 05:29N 36°24' E 013°57'612.8
2017-Aug-14 04:59N 36°26' E 013°50'612.7
2017-Aug-14 04:30N 36°29' E 013°42'612.8
2017-Aug-14 04:00N 36°31' E 013°35'712.7
2017-Aug-14 03:27N 36°33' E 013°27'1112.5
2017-Aug-14 02:33N 36°37' E 013°14'512.5
2017-Aug-14 02:11N 36°39' E 013°08'212.5
2017-Aug-14 02:00N 36°39' E 013°05'61212.4
2017-Aug-12 00:30N 36°41' E 000°22'5512.0
2017-Aug-11 19:57N 36°33' W 000°45'21713.0
2017-Aug-11 03:16N 36°00' W 005°12'313.9
2017-Aug-11 03:00N 35°60' W 005°16'713.5
2017-Aug-11 02:30N 35°58' W 005°24'712.4
2017-Aug-11 01:58N 35°56' W 005°32'41410.8
2017-Aug-09 11:45N 31°37' W 012°01'3 9.1
2017-Aug-09 11:28N 31°35' W 012°03'4 9.3
2017-Aug-09 11:00N 31°32' W 012°07'6 9.3
2017-Aug-09 10:21N 31°28' W 012°13'5 9.7
2017-Aug-09 09:48N 31°25' W 012°17'13 9.5
2017-Aug-09 08:29N 31°17' W 012°29'510.0
2017-Aug-09 08:00N 31°14' W 012°33'6 9.8
2017-Aug-09 07:24N 31°10' W 012°38'410.4
2017-Aug-09 07:00N 31°07' W 012°42'510.1
2017-Aug-09 06:30N 31°04' W 012°46'5 9.6
2017-Aug-09 05:58N 31°01' W 012°51'8 9.8
2017-Aug-09 05:06N 30°55' W 012°58'4 9.9
2017-Aug-09 04:42N 30°53' W 013°02'2 9.6
2017-Aug-09 04:30N 30°51' W 013°04'610.0
2017-Aug-09 03:53N 30°47' W 013°09'4 9.9
2017-Aug-09 03:30N 30°45' W 013°12'6 9.8
2017-Aug-09 02:51N 30°41' W 013°18'410.0
2017-Aug-09 02:29N 30°38' W 013°21'610.3
2017-Aug-09 01:57N 30°35' W 013°26'510.1
2017-Aug-09 01:30N 30°32' W 013°30'5 9.9
2017-Aug-09 01:00N 30°29' W 013°35'510.2
2017-Aug-09 00:30N 30°26' W 013°39'510.0
2017-Aug-08 23:59N 30°22' W 013°44'3810.5
2017-Aug-08 20:22N 29°53' W 014°11'410.9
2017-Aug-08 19:58N 29°49' W 014°14'911.1
2017-Aug-08 19:08N 29°41' W 014°20'111.1
2017-Aug-08 19:00N 29°40' W 014°21'611.5
2017-Aug-08 18:30N 29°35' W 014°24'611.4
2017-Aug-08 18:00N 29°30' W 014°27'611.5
2017-Aug-08 17:27N 29°25' W 014°31'711.6
2017-Aug-08 16:51N 29°19' W 014°35'1111.8
2017-Aug-08 15:57N 29°09' W 014°41'811.6
2017-Aug-08 15:13N 29°02' W 014°46'411.6
2017-Aug-08 14:50N 28°58' W 014°49'411.5
2017-Aug-08 14:30N 28°55' W 014°51'711.4
2017-Aug-08 13:55N 28°50' W 014°55'611.1
2017-Aug-08 13:25N 28°45' W 014°59'511.3
2017-Aug-08 13:00N 28°41' W 015°01'611.4
2017-Aug-08 12:30N 28°36' W 015°04'611.6
2017-Aug-08 12:00N 28°31' W 015°08'611.7
2017-Aug-08 11:30N 28°26' W 015°11'611.8
2017-Aug-08 11:00N 28°21' W 015°14'611.8
2017-Aug-08 10:30N 28°16' W 015°17'611.9
2017-Aug-08 10:00N 28°10' W 015°21'5 9.7
2017-Aug-08 09:30N 28°06' W 015°24'0 0.6
2017-Aug-08 08:59N 28°06' W 015°24'0 0.0
2017-Aug-08 08:20N 28°06' W 015°24'0 0.0
2017-Aug-08 07:50N 28°06' W 015°24'0 0.0
2017-Aug-08 07:23N 28°06' W 015°24'0 0.0
2017-Aug-08 06:53N 28°06' W 015°24'0 0.0
2017-Aug-08 06:23N 28°06' W 015°24'0 0.0
2017-Aug-08 05:53N 28°06' W 015°24'0 0.0
2017-Aug-08 05:23N 28°06' W 015°24'0 0.0
2017-Aug-08 04:53N 28°06' W 015°24'0 0.0
2017-Aug-08 04:26N 28°06' W 015°24'0 0.0
2017-Aug-08 03:56N 28°06' W 015°24'0 0.0
2017-Aug-08 03:26N 28°06' W 015°24'0 0.0
2017-Aug-08 02:56N 28°06' W 015°24'0 0.0
2017-Aug-08 02:26N 28°06' W 015°24'0 0.0
2017-Aug-08 01:56N 28°06' W 015°24'0 0.0
2017-Aug-08 01:30N 28°06' W 015°24'1 1.7
2017-Aug-08 01:00N 28°07' W 015°23'3 6.9
2017-Aug-08 00:30N 28°06' W 015°20'612.1
2017-Aug-08 00:00N 28°03' W 015°13'510.5
2017-Aug-07 23:30N 27°58' W 015°12'611.2
2017-Aug-07 23:00N 27°53' W 015°12'611.0
2017-Aug-07 22:30N 27°47' W 015°15'510.9
2017-Aug-07 22:00N 27°43' W 015°17'611.0
2017-Aug-07 21:28N 27°37' W 015°20'611.1
2017-Aug-07 20:57N 27°32' W 015°23'512.3
2017-Aug-07 20:30N 27°27' W 015°26'612.7
2017-Aug-07 20:00N 27°22' W 015°29'712.8
2017-Aug-07 19:26N 27°15' W 015°33'712.6
2017-Aug-07 18:55N 27°10' W 015°37'512.3
2017-Aug-07 18:30N 27°05' W 015°39'712.3
2017-Aug-07 17:55N 26°59' W 015°43'512.1
2017-Aug-07 17:28N 26°54' W 015°46'612.2
2017-Aug-07 16:58N 26°48' W 015°49'1912.2
2017-Aug-07 15:23N 26°31' W 015°59'812.5
2017-Aug-07 14:45N 26°24' W 016°03'10712.5
2017-Aug-07 06:13N 24°49' W 016°57'  
Track history (hours):
 
Tides and Currents Weather Stations Pressure Air Temp Water Temp Dewpoint Dewpoint Depression Visibility Wind Speed Wind Dir Waves Ship Positions

Cmb Ariane

Last reported at 2017-Aug-14 08:22 UTC. Time now 2017-Aug-21 12:07 UTC.
Position N 36°11' E 014°40'.

Length 180 m; draft 9.7 m.

Type: Cargo ship. MMSI: 477229600.

Date/timePositionNaut miles runAvg speedWind from/ knotsBaromVisibWave heightAir tempDewpointWater temp
2017-Aug-14 08:22N 36°11' E 014°40'513.1
2017-Aug-14 08:00N 36°12' E 014°35'713.1
2017-Aug-14 07:30N 36°14' E 014°27'612.8
2017-Aug-14 07:00N 36°17' E 014°20'713.0
2017-Aug-14 06:30N 36°19' E 014°12'612.9
2017-Aug-14 06:00N 36°22' E 014°05'712.9
2017-Aug-14 05:29N 36°24' E 013°57'612.8
2017-Aug-14 04:59N 36°26' E 013°50'612.7
2017-Aug-14 04:30N 36°29' E 013°42'612.8
2017-Aug-14 04:00N 36°31' E 013°35'712.7
2017-Aug-14 03:27N 36°33' E 013°27'1112.5
2017-Aug-14 02:33N 36°37' E 013°14'512.5
2017-Aug-14 02:11N 36°39' E 013°08'212.5
2017-Aug-14 02:00N 36°39' E 013°05'61212.4
2017-Aug-12 00:30N 36°41' E 000°22'5512.0
2017-Aug-11 19:57N 36°33' W 000°45'21713.0
2017-Aug-11 03:16N 36°00' W 005°12'313.9
2017-Aug-11 03:00N 35°60' W 005°16'713.5
2017-Aug-11 02:30N 35°58' W 005°24'712.4
2017-Aug-11 01:58N 35°56' W 005°32'41410.8
2017-Aug-09 11:45N 31°37' W 012°01'3 9.1
2017-Aug-09 11:28N 31°35' W 012°03'4 9.3
2017-Aug-09 11:00N 31°32' W 012°07'6 9.3
2017-Aug-09 10:21N 31°28' W 012°13'5 9.7
2017-Aug-09 09:48N 31°25' W 012°17'13 9.5
2017-Aug-09 08:29N 31°17' W 012°29'510.0
2017-Aug-09 08:00N 31°14' W 012°33'6 9.8
2017-Aug-09 07:24N 31°10' W 012°38'410.4
2017-Aug-09 07:00N 31°07' W 012°42'510.1
2017-Aug-09 06:30N 31°04' W 012°46'5 9.6
2017-Aug-09 05:58N 31°01' W 012°51'8 9.8
2017-Aug-09 05:06N 30°55' W 012°58'4 9.9
2017-Aug-09 04:42N 30°53' W 013°02'2 9.6
2017-Aug-09 04:30N 30°51' W 013°04'610.0
2017-Aug-09 03:53N 30°47' W 013°09'4 9.9
2017-Aug-09 03:30N 30°45' W 013°12'6 9.8
2017-Aug-09 02:51N 30°41' W 013°18'410.0
2017-Aug-09 02:29N 30°38' W 013°21'610.3
2017-Aug-09 01:57N 30°35' W 013°26'510.1
2017-Aug-09 01:30N 30°32' W 013°30'5 9.9
2017-Aug-09 01:00N 30°29' W 013°35'510.2
2017-Aug-09 00:30N 30°26' W 013°39'510.0
2017-Aug-08 23:59N 30°22' W 013°44'3810.5
2017-Aug-08 20:22N 29°53' W 014°11'410.9
2017-Aug-08 19:58N 29°49' W 014°14'911.1
2017-Aug-08 19:08N 29°41' W 014°20'111.1
2017-Aug-08 19:00N 29°40' W 014°21'611.5
2017-Aug-08 18:30N 29°35' W 014°24'611.4
2017-Aug-08 18:00N 29°30' W 014°27'611.5
2017-Aug-08 17:27N 29°25' W 014°31'711.6
2017-Aug-08 16:51N 29°19' W 014°35'1111.8
2017-Aug-08 15:57N 29°09' W 014°41'811.6
2017-Aug-08 15:13N 29°02' W 014°46'411.6
2017-Aug-08 14:50N 28°58' W 014°49'411.5
2017-Aug-08 14:30N 28°55' W 014°51'711.4
2017-Aug-08 13:55N 28°50' W 014°55'611.1
2017-Aug-08 13:25N 28°45' W 014°59'511.3
2017-Aug-08 13:00N 28°41' W 015°01'611.4
2017-Aug-08 12:30N 28°36' W 015°04'611.6
2017-Aug-08 12:00N 28°31' W 015°08'611.7
2017-Aug-08 11:30N 28°26' W 015°11'611.8
2017-Aug-08 11:00N 28°21' W 015°14'611.8
2017-Aug-08 10:30N 28°16' W 015°17'611.9
2017-Aug-08 10:00N 28°10' W 015°21'5 9.7
2017-Aug-08 09:30N 28°06' W 015°24'0 0.6
2017-Aug-08 08:59N 28°06' W 015°24'0 0.0
2017-Aug-08 08:20N 28°06' W 015°24'0 0.0
2017-Aug-08 07:50N 28°06' W 015°24'0 0.0
2017-Aug-08 07:23N 28°06' W 015°24'0 0.0
2017-Aug-08 06:53N 28°06' W 015°24'0 0.0
2017-Aug-08 06:23N 28°06' W 015°24'0 0.0
2017-Aug-08 05:53N 28°06' W 015°24'0 0.0
2017-Aug-08 05:23N 28°06' W 015°24'0 0.0
2017-Aug-08 04:53N 28°06' W 015°24'0 0.0
2017-Aug-08 04:26N 28°06' W 015°24'0 0.0
2017-Aug-08 03:56N 28°06' W 015°24'0 0.0
2017-Aug-08 03:26N 28°06' W 015°24'0 0.0
2017-Aug-08 02:56N 28°06' W 015°24'0 0.0
2017-Aug-08 02:26N 28°06' W 015°24'0 0.0
2017-Aug-08 01:56N 28°06' W 015°24'0 0.0
2017-Aug-08 01:30N 28°06' W 015°24'1 1.7
2017-Aug-08 01:00N 28°07' W 015°23'3 6.9
2017-Aug-08 00:30N 28°06' W 015°20'612.1
2017-Aug-08 00:00N 28°03' W 015°13'510.5
2017-Aug-07 23:30N 27°58' W 015°12'611.2
2017-Aug-07 23:00N 27°53' W 015°12'611.0
2017-Aug-07 22:30N 27°47' W 015°15'510.9
2017-Aug-07 22:00N 27°43' W 015°17'611.0
2017-Aug-07 21:28N 27°37' W 015°20'611.1
2017-Aug-07 20:57N 27°32' W 015°23'512.3
2017-Aug-07 20:30N 27°27' W 015°26'612.7
2017-Aug-07 20:00N 27°22' W 015°29'712.8
2017-Aug-07 19:26N 27°15' W 015°33'712.6
2017-Aug-07 18:55N 27°10' W 015°37'512.3
2017-Aug-07 18:30N 27°05' W 015°39'712.3
2017-Aug-07 17:55N 26°59' W 015°43'512.1
2017-Aug-07 17:28N 26°54' W 015°46'612.2
2017-Aug-07 16:58N 26°48' W 015°49'1912.2
2017-Aug-07 15:23N 26°31' W 015°59'812.5
2017-Aug-07 14:45N 26°24' W 016°03'10712.5
2017-Aug-07 06:13N 24°49' W 016°57'  

Dump ship's entire track history